Time;durP1;ratioP1;P1;durP2;ratioP2;P2;SDS_P1;SDS_P2;PMS_P1;PMS_P2;Temp;Humidity;BMP_temperature;BMP_pressure;BME280_temperature;BME280_humidity;BME280_pressure;Samples;Min_cycle;Max_cycle;Signal;HPM_P1;HPM_P2
2023/01/19 00:01:11;;;;;;;20.42;9.85;;;5.10;99.90;;;;;;4959659;29;19895;-80
2023/01/19 00:03:37;;;;;;;;;;;5.10;99.90;;;;;;4958872;29;20004;-81
2023/01/19 00:06:07;;;;;;;22.55;9.40;;;5.10;99.90;;;;;;4959398;28;19982;-80
2023/01/19 00:08:34;;;;;;;22.15;9.85;;;4.90;99.90;;;;;;4946210;29;20099;-80
2023/01/19 00:11:00;;;;;;;16.60;7.88;;;4.90;99.90;;;;;;4960137;29;20016;-81
2023/01/19 00:13:26;;;;;;;12.25;5.70;;;4.90;99.90;;;;;;4960870;29;20064;-82
2023/01/19 00:15:52;;;;;;;10.30;5.18;;;4.80;99.90;;;;;;4960550;29;20015;-82
2023/01/19 00:18:18;;;;;;;19.92;9.23;;;4.70;99.90;;;;;;4960860;29;20012;-81
2023/01/19 00:20:45;;;;;;;;;;;4.70;99.90;;;;;;4960949;29;20019;-82
2023/01/19 00:23:11;;;;;;;13.10;4.80;;;4.70;99.90;;;;;;4961065;29;19895;-81
2023/01/19 00:25:42;;;;;;;5.18;2.72;;;4.50;99.90;;;;;;4960656;29;20083;-82
2023/01/19 00:28:13;;;;;;;6.28;2.65;;;4.60;99.90;;;;;;4961103;29;20039;-80
2023/01/19 00:30:40;;;;;;;4.85;1.52;;;4.50;99.90;;;;;;4960157;29;20051;-83
2023/01/19 00:33:07;;;;;;;3.75;1.40;;;4.50;99.90;;;;;;4960548;29;20023;-82
2023/01/19 00:35:34;;;;;;;1.42;0.52;;;4.60;99.90;;;;;;4960916;29;20015;-83
2023/01/19 00:38:01;;;;;;;1.55;0.50;;;4.60;99.90;;;;;;4960941;29;20087;-83
2023/01/19 00:40:27;;;;;;;1.90;0.63;;;4.60;99.90;;;;;;4960889;29;20036;-83
2023/01/19 00:42:53;;;;;;;1.08;0.30;;;4.70;99.90;;;;;;4961024;29;20036;-84
2023/01/19 00:45:20;;;;;;;;;;;4.90;99.90;;;;;;4961074;29;20041;-83
2023/01/19 00:47:47;;;;;;;0.80;0.20;;;4.80;99.90;;;;;;4960667;29;19910;-84
2023/01/19 00:50:15;;;;;;;0.95;0.40;;;4.90;99.90;;;;;;4960729;29;20020;-85
2023/01/19 00:52:43;;;;;;;0.50;0.20;;;4.70;99.90;;;;;;4960325;29;20039;-82
2023/01/19 00:55:11;;;;;;;0.35;0.20;;;4.80;99.90;;;;;;4960668;29;20064;-84
2023/01/19 00:57:38;;;;;;;0.73;0.10;;;4.80;99.90;;;;;;4959671;29;20016;-84
2023/01/19 01:00:08;;;;;;;0.60;0.30;;;4.80;99.90;;;;;;4959717;29;20000;-84
2023/01/19 01:02:35;;;;;;;0.10;0.10;;;4.80;99.90;;;;;;4960371;29;20084;-84
2023/01/19 01:05:01;;;;;;;0.40;0.20;;;4.80;99.90;;;;;;4959325;29;20056;-83
2023/01/19 01:07:28;;;;;;;2.05;0.50;;;4.70;99.90;;;;;;4960126;29;20008;-83
2023/01/19 01:09:57;;;;;;;1.08;0.30;;;4.70;99.90;;;;;;4959653;29;20031;-83
2023/01/19 01:12:23;;;;;;;1.00;0.40;;;4.90;99.90;;;;;;4958674;29;20120;-84
2023/01/19 01:14:49;;;;;;;2.15;0.40;;;5.00;99.90;;;;;;4960050;29;20099;-81
2023/01/19 01:17:15;;;;;;;;;;;5.20;99.90;;;;;;4959218;29;20179;-84
2023/01/19 01:19:40;;;;;;;0.60;0.30;;;5.20;99.90;;;;;;4960747;29;19919;-85
2023/01/19 01:22:06;;;;;;;;;;;5.20;99.90;;;;;;4963649;29;20043;-84
2023/01/19 01:24:35;;;;;;;0.73;0.30;;;5.20;99.90;;;;;;4963248;29;19891;-83
2023/01/19 01:27:01;;;;;;;0.50;0.30;;;5.40;99.90;;;;;;4961132;29;20031;-83
2023/01/19 01:29:27;;;;;;;0.70;0.30;;;5.50;99.90;;;;;;4962565;29;20028;-84
2023/01/19 01:31:52;;;;;;;;;;;5.40;99.90;;;;;;4962441;29;20049;-83
2023/01/19 01:34:18;;;;;;;0.65;0.17;;;5.30;99.90;;;;;;4961788;29;19999;-83
2023/01/19 01:36:44;;;;;;;;;;;5.30;99.90;;;;;;4962736;29;20026;-82
2023/01/19 01:39:10;;;;;;;0.40;0.13;;;5.20;99.90;;;;;;4962025;29;19913;-82
2023/01/19 01:41:39;;;;;;;;;;;5.20;99.90;;;;;;4960498;29;20008;-80
2023/01/19 01:44:48;;;;;;;0.50;0.20;;;5.20;99.90;;;;;;4956925;29;19917;-78
2023/01/19 01:47:19;;;;;;;0.30;0.13;;;5.10;99.90;;;;;;4958681;29;20035;-80
2023/01/19 01:49:46;;;;;;;0.75;0.30;;;5.10;99.90;;;;;;4963735;29;20044;-81
2023/01/19 01:52:14;;;;;;;0.68;0.20;;;4.90;99.90;;;;;;4964048;29;20031;-81
2023/01/19 01:54:41;;;;;;;0.35;0.20;;;5.00;99.90;;;;;;4964167;29;20028;-82
2023/01/19 01:57:11;;;;;;;0.50;0.30;;;5.00;99.90;;;;;;4964493;29;20076;-81
2023/01/19 01:59:43;;;;;;;0.63;0.22;;;5.00;99.90;;;;;;4964534;29;20016;-82
2023/01/19 02:05:22;;;;;;;0.30;0.15;;;5.00;99.90;;;;;;4964406;29;20035;-80
2023/01/19 02:16:02;;;;;;;0.47;0.20;;;5.00;99.90;;;;;;5961009;23;20759;-83
2023/01/19 02:18:30;;;;;;;1.05;0.10;;;5.20;99.90;;;;;;4981537;28;20025;-80
2023/01/19 02:21:00;;;;;;;0.90;0.20;;;5.20;99.90;;;;;;4981348;28;20027;-82
2023/01/19 02:23:44;;;;;;;0.50;0.20;;;5.20;99.90;;;;;;4981149;29;20023;-83
2023/01/19 02:26:14;;;;;;;0.90;0.20;;;5.20;99.90;;;;;;4964687;29;20027;-83
2023/01/19 02:28:45;;;;;;;0.40;0.20;;;5.20;99.90;;;;;;4981770;29;20008;-82
2023/01/19 02:31:13;;;;;;;1.10;0.30;;;5.10;99.90;;;;;;4964354;29;20019;-83
2023/01/19 02:33:40;;;;;;;2.60;0.60;;;5.10;99.90;;;;;;4981557;29;20035;-82
2023/01/19 02:36:09;;;;;;;4.10;0.68;;;5.20;99.90;;;;;;4981744;28;20096;-82
2023/01/19 02:38:37;;;;;;;2.95;0.90;;;5.40;99.90;;;;;;4980646;29;20095;-82
2023/01/19 02:41:06;;;;;;;4.53;0.60;;;5.40;99.90;;;;;;4981100;28;20051;-83
2023/01/19 02:43:33;;;;;;;0.57;0.30;;;5.90;99.90;;;;;;4964370;29;20027;-84
2023/01/19 02:45:59;;;;;;;0.40;0.20;;;5.80;99.90;;;;;;4979971;29;20039;-83
2023/01/19 02:48:25;;;;;;;;;;;5.90;99.90;;;;;;4981271;29;20018;-84
2023/01/19 02:51:03;;;;;;;1.05;0.35;;;5.60;99.90;;;;;;4980451;28;19922;-84
2023/01/19 02:53:52;;;;;;;1.30;0.68;;;5.80;99.90;;;;;;4980669;28;20038;-82
2023/01/19 02:56:42;;;;;;;1.67;0.47;;;5.90;99.90;;;;;;4964075;29;20011;-83
2023/01/19 02:59:14;;;;;;;1.83;0.40;;;5.70;99.90;;;;;;4981220;28;20083;-83
2023/01/19 03:02:00;;;;;;;0.40;0.20;;;5.90;99.90;;;;;;4981224;28;20027;-81
2023/01/19 03:04:39;;;;;;;1.70;0.50;;;5.90;99.90;;;;;;4981501;28;20034;-83
2023/01/19 03:07:34;;;;;;;0.60;0.22;;;5.90;99.90;;;;;;4980817;28;20035;-82
2023/01/19 03:10:25;;;;;;;1.13;0.40;;;5.90;99.90;;;;;;4962968;29;20039;-82
2023/01/19 03:13:03;;;;;;;0.60;0.35;;;6.00;99.90;;;;;;4966020;28;20023;-80
2023/01/19 03:15:54;;;;;;;0.45;0.20;;;5.90;99.90;;;;;;4982630;28;20004;-78
2023/01/19 03:18:25;;;;;;;0.20;0.10;;;5.80;99.90;;;;;;4966016;28;20112;-79
2023/01/19 03:20:54;;;;;;;0.90;0.40;;;5.80;99.90;;;;;;4982579;28;20011;-77
2023/01/19 03:23:24;;;;;;;0.70;0.30;;;5.80;99.90;;;;;;4982114;28;20090;-78
2023/01/19 03:25:54;;;;;;;0.70;0.22;;;5.70;99.90;;;;;;4982472;28;20027;-79
2023/01/19 03:28:22;;;;;;;1.42;0.45;;;5.50;99.90;;;;;;4982466;28;20082;-79
2023/01/19 03:30:54;;;;;;;1.98;0.68;;;5.40;99.90;;;;;;4982077;28;20035;-79
2023/01/19 03:33:29;;;;;;;1.60;0.60;;;5.20;99.90;;;;;;4982179;28;20062;-79
2023/01/19 03:36:02;;;;;;;3.78;1.10;;;5.00;99.90;;;;;;4981951;28;20007;-78
2023/01/19 03:38:36;;;;;;;1.05;0.50;;;4.80;99.90;;;;;;4965748;28;20027;-78
2023/01/19 03:41:05;;;;;;;1.60;0.55;;;4.60;99.90;;;;;;4980250;29;20027;-82
2023/01/19 03:43:33;;;;;;;3.63;0.98;;;4.10;99.90;;;;;;4963935;29;20024;-82
2023/01/19 03:46:00;;;;;;;4.57;1.05;;;4.10;99.90;;;;;;4980169;29;20031;-82
2023/01/19 03:48:26;;;;;;;4.32;1.02;;;4.30;99.90;;;;;;4964019;29;20027;-83
2023/01/19 03:50:52;;;;;;;2.65;0.77;;;4.10;99.90;;;;;;4979629;29;20023;-84
2023/01/19 03:53:21;;;;;;;6.75;1.42;;;3.90;99.90;;;;;;4979861;28;20019;-84
2023/01/19 03:55:50;;;;;;;5.53;1.30;;;4.10;99.90;;;;;;4963448;29;20019;-84
2023/01/19 03:58:16;;;;;;;1.70;0.20;;;4.10;99.90;;;;;;4979764;29;20030;-83
2023/01/19 04:00:42;;;;;;;1.08;0.20;;;3.90;99.90;;;;;;4962766;29;20011;-83
2023/01/19 04:03:14;;;;;;;;;;;4.00;99.90;;;;;;4979642;28;20039;-83
2023/01/19 04:05:41;;;;;;;2.05;0.60;;;4.00;99.90;;;;;;4962829;29;19933;-84
2023/01/19 04:08:07;;;;;;;2.92;0.85;;;4.00;99.90;;;;;;4979804;28;20035;-82
2023/01/19 04:10:33;;;;;;;6.35;1.65;;;4.00;99.90;;;;;;4979572;29;20011;-82
2023/01/19 04:12:59;;;;;;;;;;;4.10;99.90;;;;;;4979852;28;20023;-82
2023/01/19 04:15:26;;;;;;;0.80;0.22;;;4.00;99.90;;;;;;4963057;29;19909;-82
2023/01/19 04:17:52;;;;;;;0.38;0.30;;;4.00;99.90;;;;;;4962913;29;20046;-83
2023/01/19 04:20:19;;;;;;;0.73;0.30;;;4.10;99.90;;;;;;4963091;29;20035;-83
2023/01/19 04:22:44;;;;;;;0.60;0.30;;;4.20;99.90;;;;;;4962631;29;20012;-82
2023/01/19 04:25:10;;;;;;;;;;;4.20;99.90;;;;;;4963220;29;20014;-83
2023/01/19 04:27:36;;;;;;;1.60;0.77;;;4.10;99.90;;;;;;4978938;28;19941;-84
2023/01/19 04:30:03;;;;;;;;;;;4.30;99.90;;;;;;4979610;29;20011;-84
2023/01/19 04:32:29;;;;;;;0.40;0.20;;;4.20;99.90;;;;;;4962737;29;19961;-83
2023/01/19 04:34:56;;;;;;;3.38;0.20;;;4.10;99.90;;;;;;4979817;29;20103;-84
2023/01/19 04:37:22;;;;;;;0.90;0.28;;;4.30;99.90;;;;;;4979252;28;20016;-82
2023/01/19 04:39:48;;;;;;;0.60;0.20;;;4.20;99.90;;;;;;4962928;28;20023;-83
2023/01/19 04:42:14;;;;;;;;;;;4.30;99.90;;;;;;4962648;29;20027;-83
2023/01/19 04:44:40;;;;;;;1.05;0.40;;;4.30;99.90;;;;;;4962602;29;19953;-84
2023/01/19 04:47:05;;;;;;;;;;;4.30;99.90;;;;;;4979102;28;20039;-83
2023/01/19 04:49:31;;;;;;;2.30;0.40;;;4.30;99.90;;;;;;4978706;28;19998;-83
2023/01/19 04:51:57;;;;;;;;;;;4.20;99.90;;;;;;4978906;28;20026;-83
2023/01/19 04:54:23;;;;;;;1.30;0.30;;;4.20;99.90;;;;;;4978380;28;19917;-83
2023/01/19 04:56:49;;;;;;;;;;;4.30;99.90;;;;;;4979513;29;20032;-82
2023/01/19 04:59:15;;;;;;;0.60;0.22;;;4.30;99.90;;;;;;4979232;29;19941;-85
2023/01/19 05:01:40;;;;;;;;;;;4.10;99.90;;;;;;4978830;29;20037;-83
2023/01/19 05:04:07;;;;;;;1.45;0.30;;;4.30;99.90;;;;;;4961875;29;19907;-84
2023/01/19 05:06:33;;;;;;;0.55;0.22;;;4.30;99.90;;;;;;4978161;28;20027;-84
2023/01/19 05:08:59;;;;;;;1.27;0.30;;;4.40;99.90;;;;;;4978435;29;20050;-84
2023/01/19 05:11:25;;;;;;;;;;;4.40;99.90;;;;;;4978586;28;20019;-84
2023/01/19 05:13:51;;;;;;;2.42;0.98;;;4.40;99.90;;;;;;4978289;28;19926;-82
2023/01/19 05:16:17;;;;;;;3.38;1.02;;;4.40;99.90;;;;;;4960945;29;20072;-84
2023/01/19 05:18:43;;;;;;;;;;;4.40;99.90;;;;;;4961572;29;20019;-84
2023/01/19 05:21:09;;;;;;;2.85;0.85;;;4.40;99.90;;;;;;4977979;29;19979;-84
2023/01/19 05:23:35;;;;;;;;;;;4.40;99.90;;;;;;4961372;29;20032;-83
2023/01/19 05:26:01;;;;;;;2.50;0.70;;;4.50;99.90;;;;;;4962334;29;19940;-83
2023/01/19 05:28:28;;;;;;;1.48;0.43;;;4.40;99.90;;;;;;4961341;29;20018;-84
2023/01/19 05:30:54;;;;;;;2.20;0.65;;;4.50;99.90;;;;;;4978277;29;20016;-84
2023/01/19 05:33:23;;;;;;;;;;;4.40;99.90;;;;;;4978048;29;20031;-83
2023/01/19 05:35:50;;;;;;;2.95;0.75;;;4.50;99.90;;;;;;4977850;29;19913;-83
2023/01/19 05:38:16;;;;;;;3.67;0.95;;;4.40;99.90;;;;;;4962015;29;20090;-83
2023/01/19 05:40:42;;;;;;;2.50;0.70;;;4.20;99.90;;;;;;4978248;29;20023;-83
2023/01/19 05:43:08;;;;;;;;;;;4.50;99.90;;;;;;4962338;29;20019;-82
2023/01/19 05:45:34;;;;;;;1.60;0.30;;;4.50;99.90;;;;;;4978200;29;19891;-83
2023/01/19 05:48:00;;;;;;;;;;;4.50;99.90;;;;;;4979041;28;20087;-83
2023/01/19 05:50:26;;;;;;;1.38;0.40;;;4.20;99.90;;;;;;4978455;29;19901;-84
2023/01/19 05:52:54;;;;;;;;;;;4.40;99.90;;;;;;4962106;28;20038;-81
2023/01/19 05:55:21;;;;;;;1.35;0.40;;;4.60;99.90;;;;;;4961519;29;19942;-83
2023/01/19 05:57:46;;;;;;;2.15;0.50;;;4.50;99.90;;;;;;4978246;28;20039;-82
2023/01/19 06:00:12;;;;;;;;;;;4.50;99.90;;;;;;4978753;28;20034;-84
2023/01/19 06:02:38;;;;;;;0.98;0.20;;;4.60;99.90;;;;;;4979338;28;19917;-84
2023/01/19 06:05:04;;;;;;;;;;;4.60;99.90;;;;;;4979136;28;20027;-84
2023/01/19 06:07:31;;;;;;;2.30;0.50;;;4.60;99.90;;;;;;4964407;29;19917;-82
2023/01/19 06:09:57;;;;;;;2.03;0.70;;;4.60;99.90;;;;;;4982093;28;20027;-82
2023/01/19 06:12:23;;;;;;;1.63;0.60;;;4.60;99.90;;;;;;4965393;28;20049;-82
2023/01/19 06:14:49;;;;;;;3.08;1.23;;;4.60;99.90;;;;;;4982478;28;20062;-84
2023/01/19 06:17:15;;;;;;;;;;;4.60;99.90;;;;;;4982640;29;20027;-83
2023/01/19 06:19:41;;;;;;;0.95;0.20;;;4.60;99.90;;;;;;4981717;28;19910;-83
2023/01/19 06:22:07;;;;;;;;;;;4.70;99.90;;;;;;4981901;29;20032;-84
2023/01/19 06:24:33;;;;;;;0.55;0.20;;;4.80;99.90;;;;;;4964648;29;19979;-83
2023/01/19 06:26:59;;;;;;;1.77;0.50;;;4.50;99.90;;;;;;4981808;28;20027;-82
2023/01/19 06:29:28;;;;;;;3.05;0.98;;;4.60;99.90;;;;;;4965134;29;20059;-83
2023/01/19 06:31:54;;;;;;;2.83;0.90;;;4.60;99.90;;;;;;4965270;29;20018;-82
2023/01/19 06:34:20;;;;;;;3.28;1.42;;;4.70;99.90;;;;;;4981635;29;20023;-83
2023/01/19 06:36:46;;;;;;;;;;;4.70;99.90;;;;;;4982008;28;20055;-82
2023/01/19 06:39:12;;;;;;;4.93;2.08;;;4.70;99.90;;;;;;4981350;28;19902;-83
2023/01/19 06:41:38;;;;;;;3.70;1.45;;;4.70;99.90;;;;;;4964933;28;20035;-82
2023/01/19 06:44:04;;;;;;;4.63;1.65;;;4.60;99.90;;;;;;4964191;29;20011;-83
2023/01/19 06:46:31;;;;;;;2.80;1.27;;;4.50;99.90;;;;;;4964116;29;20034;-83
2023/01/19 06:48:57;;;;;;;2.25;0.80;;;4.60;99.90;;;;;;4981153;28;20015;-83
2023/01/19 06:51:23;;;;;;;;;;;4.60;99.90;;;;;;4981003;29;20054;-83
2023/01/19 06:53:49;;;;;;;2.92;1.00;;;4.50;99.90;;;;;;4964401;29;19922;-83
2023/01/19 06:56:15;;;;;;;2.72;0.70;;;4.40;99.90;;;;;;4981358;28;20055;-82
2023/01/19 06:58:41;;;;;;;;;;;4.50;99.90;;;;;;4980842;28;20412;-83
2023/01/19 07:01:08;;;;;;;4.00;0.43;;;4.40;99.90;;;;;;4964252;29;19937;-84
2023/01/19 07:03:37;;;;;;;1.92;0.60;;;4.40;99.90;;;;;;4980957;28;20015;-80
2023/01/19 07:06:05;;;;;;;7.10;1.00;;;4.40;99.90;;;;;;4980463;28;20007;-83
2023/01/19 07:08:32;;;;;;;2.50;0.75;;;4.40;99.90;;;;;;4980133;29;20027;-83
2023/01/19 07:11:04;;;;;;;3.58;0.60;;;3.60;99.90;;;;;;4980481;29;20015;-83
2023/01/19 07:13:34;;;;;;;2.65;0.82;;;4.40;99.90;;;;;;4963972;29;20043;-84
2023/01/19 07:16:09;;;;;;;1.70;0.45;;;4.30;99.90;;;;;;4963684;29;20031;-83
2023/01/19 07:18:36;;;;;;;1.58;0.63;;;4.40;99.90;;;;;;4962649;29;20066;-83
2023/01/19 07:21:02;;;;;;;4.45;0.80;;;4.50;99.90;;;;;;4980216;29;20027;-83
2023/01/19 07:23:29;;;;;;;1.35;0.40;;;4.40;99.90;;;;;;4980074;29;20051;-84
2023/01/19 07:26:00;;;;;;;2.08;0.60;;;4.50;99.90;;;;;;4963402;29;20024;-83
2023/01/19 07:28:27;;;;;;;2.15;0.77;;;4.50;99.90;;;;;;4979956;28;20089;-83
2023/01/19 07:30:54;;;;;;;2.33;0.90;;;4.10;99.90;;;;;;4980060;28;20023;-83
2023/01/19 07:33:21;;;;;;;1.55;0.60;;;4.60;99.90;;;;;;4979974;28;20062;-83
2023/01/19 07:35:48;;;;;;;2.00;0.90;;;4.60;99.90;;;;;;4980655;28;20008;-80
2023/01/19 07:38:15;;;;;;;3.90;0.63;;;4.60;99.90;;;;;;4980100;28;20519;-83
2023/01/19 07:40:41;;;;;;;3.72;1.10;;;4.80;99.90;;;;;;4980564;28;20029;-83
2023/01/19 07:43:07;;;;;;;;;;;4.60;99.90;;;;;;4964143;28;20063;-83
2023/01/19 07:45:34;;;;;;;4.10;0.93;;;4.70;99.90;;;;;;4981153;28;19914;-84
2023/01/19 07:48:00;;;;;;;3.08;1.20;;;4.70;99.90;;;;;;4963750;29;20071;-84
2023/01/19 07:50:28;;;;;;;;;;;4.60;99.90;;;;;;4981270;29;20031;-83
2023/01/19 07:52:54;;;;;;;5.25;2.72;;;4.70;99.90;;;;;;4964229;28;19966;-81
2023/01/19 07:55:20;;;;;;;5.70;3.40;;;4.70;99.90;;;;;;4963680;29;20038;-82
2023/01/19 07:57:50;;;;;;;7.43;3.75;;;4.80;99.90;;;;;;4980800;28;20029;-84
2023/01/19 08:00:20;;;;;;;4.50;2.35;;;4.80;99.90;;;;;;4963871;29;20017;-83
2023/01/19 08:02:48;;;;;;;4.95;2.47;;;4.70;99.90;;;;;;4964335;29;20007;-82
2023/01/19 08:05:16;;;;;;;3.58;1.88;;;4.90;99.90;;;;;;4963950;28;20019;-82
2023/01/19 08:07:41;;;;;;;2.60;1.10;;;4.80;99.90;;;;;;4980558;28;20003;-83
2023/01/19 08:10:08;;;;;;;;;;;5.10;99.90;;;;;;4980995;28;20027;-82
2023/01/19 08:12:34;;;;;;;4.07;1.92;;;5.00;99.90;;;;;;4980625;29;19902;-83
2023/01/19 08:14:59;;;;;;;;;;;5.10;99.90;;;;;;4980543;28;20037;-82
2023/01/19 08:17:25;;;;;;;5.13;2.88;;;5.10;99.90;;;;;;4980169;28;19966;-83
2023/01/19 08:19:51;;;;;;;;;;;5.20;99.90;;;;;;4980947;28;20027;-82
2023/01/19 08:22:17;;;;;;;11.60;7.82;;;5.30;99.90;;;;;;4980442;28;19907;-83
2023/01/19 08:24:42;;;;;;;;;;;5.10;99.90;;;;;;4980300;28;20026;-81
2023/01/19 08:27:08;;;;;;;9.73;6.00;;;5.10;99.90;;;;;;4963619;29;19910;-82
2023/01/19 08:29:34;;;;;;;;;;;5.20;99.90;;;;;;4980447;28;20046;-81
2023/01/19 08:32:01;;;;;;;5.30;2.50;;;5.20;99.90;;;;;;4964600;28;19966;-79
2023/01/19 08:34:29;;;;;;;4.93;2.35;;;5.10;99.90;;;;;;4981051;28;20091;-81
2023/01/19 08:36:56;;;;;;;10.43;3.28;;;5.00;99.90;;;;;;4981045;28;20022;-81
2023/01/19 08:39:24;;;;;;;10.73;3.72;;;5.00;99.90;;;;;;4980882;28;20022;-79
2023/01/19 08:41:51;;;;;;;22.67;7.70;;;5.10;99.90;;;;;;4964622;28;20024;-80
2023/01/19 08:44:17;;;;;;;23.30;7.78;;;5.20;99.90;;;;;;4964477;28;20024;-81
2023/01/19 08:46:43;;;;;;;25.15;9.50;;;5.20;99.90;;;;;;4980262;28;20023;-81
2023/01/19 08:49:09;;;;;;;27.15;10.30;;;5.00;99.90;;;;;;4980960;28;20027;-80
2023/01/19 08:51:35;;;;;;;;;;;5.00;99.90;;;;;;4964909;28;20011;-80
2023/01/19 08:54:01;;;;;;;17.48;7.55;;;5.10;99.90;;;;;;4980820;28;19909;-78
2023/01/19 08:56:26;;;;;;;;;;;5.10;99.90;;;;;;4981304;28;20018;-80
2023/01/19 08:58:52;;;;;;;18.40;8.48;;;5.10;99.90;;;;;;4980674;28;19915;-79
2023/01/19 09:01:20;;;;;;;;;;;5.20;99.90;;;;;;4981171;28;20075;-79
2023/01/19 09:03:47;;;;;;;30.13;14.13;;;4.80;99.90;;;;;;4964366;28;19894;-79
2023/01/19 09:06:18;;;;;;;11.68;5.55;;;5.20;99.90;;;;;;4980914;28;20063;-78
2023/01/19 09:19:25;;;;;;;14.90;7.40;;;5.20;99.90;;;;;;5895052;23;20931;-82
2023/01/19 09:21:52;;;;;;;;;;;5.10;99.90;;;;;;4961008;29;20093;-83
2023/01/19 09:24:18;;;;;;;19.83;9.85;;;5.10;99.90;;;;;;4960176;29;19962;-84
2023/01/19 09:26:43;;;;;;;;;;;5.10;99.90;;;;;;4960036;29;20023;-82
2023/01/19 09:29:09;;;;;;;18.05;9.68;;;5.00;99.90;;;;;;4960524;29;19895;-84
2023/01/19 09:31:35;;;;;;;;;;;5.00;99.90;;;;;;4960032;29;20011;-82
2023/01/19 09:34:01;;;;;;;17.58;9.70;;;5.00;99.90;;;;;;4960253;29;19919;-83
2023/01/19 09:36:27;;;;;;;;;;;5.00;99.90;;;;;;4961327;29;20079;-80
2023/01/19 09:38:53;;;;;;;23.70;15.25;;;5.10;99.90;;;;;;4961158;29;19895;-80
2023/01/19 09:41:20;;;;;;;;;;;5.00;99.90;;;;;;4963517;29;20087;-82
2023/01/19 09:43:56;;;;;;;24.77;14.52;;;5.10;99.90;;;;;;4965107;29;19895;-80
2023/01/19 09:46:35;;;;;;;30.63;18.90;;;5.20;99.90;;;;;;4964881;29;20032;-81
2023/01/19 09:49:18;;;;;;;24.65;17.02;;;5.30;99.90;;;;;;4964944;29;20042;-80
2023/01/19 09:51:47;;;;;;;29.70;16.95;;;5.20;99.90;;;;;;4964885;29;20035;-80
2023/01/19 09:54:19;;;;;;;23.75;16.02;;;5.20;99.90;;;;;;4964879;29;20024;-79
2023/01/19 09:56:47;;;;;;;29.63;17.27;;;5.20;99.90;;;;;;4964352;29;20015;-82
2023/01/19 09:59:21;;;;;;;26.90;17.95;;;5.40;99.90;;;;;;4964229;29;20043;-80
2023/01/19 10:02:22;;;;;;;30.77;19.25;;;5.30;99.90;;;;;;4964677;29;20019;-81
2023/01/19 10:05:01;;;;;;;26.75;16.38;;;5.30;99.90;;;;;;4964192;29;20026;-80
2023/01/19 16:10:15;;;;;;;14.02;8.95;;;3.80;99.90;;;;;;516542;27;20302;-77
2023/01/19 16:12:45;;;;;;;12.27;8.85;;;3.70;99.90;;;;;;4955403;28;20039;-84
2023/01/19 16:15:14;;;;;;;28.25;17.92;;;3.70;99.90;;;;;;4944134;29;20020;-84
2023/01/19 16:17:40;;;;;;;23.05;14.70;;;3.70;99.90;;;;;;4960889;28;20035;-83
2023/01/19 16:20:06;;;;;;;;;;;3.70;99.90;;;;;;4961051;29;20019;-84
2023/01/19 16:22:32;;;;;;;34.22;23.08;;;3.70;99.90;;;;;;4960877;29;19913;-83
2023/01/19 16:24:58;;;;;;;37.58;26.27;;;3.80;99.90;;;;;;4960984;28;20024;-83
2023/01/19 16:27:26;;;;;;;36.75;26.05;;;3.70;99.90;;;;;;4943781;29;20047;-83
2023/01/19 16:29:52;;;;;;;43.05;26.55;;;3.80;99.90;;;;;;4943615;29;20111;-83
2023/01/19 16:32:18;;;;;;;;;;;3.70;99.90;;;;;;4960036;29;20031;-83
2023/01/19 16:34:44;;;;;;;21.23;13.27;;;3.50;99.90;;;;;;4960167;29;19915;-84
2023/01/19 16:37:10;;;;;;;;;;;3.50;99.90;;;;;;4960328;28;20031;-83
2023/01/19 16:39:36;;;;;;;19.50;13.37;;;3.50;99.90;;;;;;4943084;29;19913;-83
2023/01/19 16:42:02;;;;;;;14.95;10.02;;;3.60;99.90;;;;;;4959653;29;20311;-84
2023/01/19 16:44:28;;;;;;;;;;;3.60;99.90;;;;;;4959683;29;20087;-83
2023/01/19 16:46:54;;;;;;;22.38;14.27;;;3.50;99.90;;;;;;4958600;29;19913;-83
2023/01/19 16:49:22;;;;;;;;;;;3.50;99.90;;;;;;4960316;29;20022;-82
2023/01/19 16:51:48;;;;;;;;;;;3.40;99.90;;;;;;4945349;29;19971;-83
2023/01/19 16:54:19;;;;;;;30.60;19.85;;;3.60;99.90;;;;;;4961487;28;19910;-83
2023/01/19 16:56:45;;;;;;;27.85;18.90;;;3.60;99.90;;;;;;4945314;28;20079;-81
2023/01/19 16:59:13;;;;;;;12.48;6.88;;;3.90;99.90;;;;;;4945179;28;20067;-83
2023/01/19 17:01:39;;;;;;;4.15;2.10;;;3.60;99.90;;;;;;4945218;29;20087;-82
2023/01/19 17:04:05;;;;;;;4.57;1.75;;;3.70;99.90;;;;;;4945106;28;20020;-80
2023/01/19 17:06:31;;;;;;;6.78;1.73;;;3.60;99.90;;;;;;4961571;29;20030;-83
2023/01/19 17:08:57;;;;;;;;;;;3.40;99.90;;;;;;4945448;28;20083;-82
2023/01/19 17:11:27;;;;;;;5.18;2.45;;;3.40;99.90;;;;;;4944738;28;19915;-83
2023/01/19 17:13:55;;;;;;;6.03;2.75;;;3.30;99.90;;;;;;4945057;28;20056;-81
2023/01/19 17:16:22;;;;;;;5.88;3.53;;;3.10;99.90;;;;;;4961444;28;20035;-83
2023/01/19 17:18:49;;;;;;;7.00;3.95;;;3.10;99.90;;;;;;4960872;28;20095;-82
2023/01/19 17:21:16;;;;;;;7.22;4.18;;;3.00;99.90;;;;;;4961261;28;20012;-83
2023/01/19 17:23:44;;;;;;;7.68;4.88;;;2.90;99.90;;;;;;4960423;28;20039;-83
2023/01/19 17:26:10;;;;;;;8.07;4.20;;;2.90;99.90;;;;;;4956638;29;20051;-84
2023/01/19 17:28:38;;;;;;;7.88;4.70;;;2.70;99.90;;;;;;4955248;29;20031;-83
2023/01/19 17:31:09;;;;;;;10.15;5.70;;;2.70;99.90;;;;;;4941848;29;20032;-83
2023/01/19 17:33:36;;;;;;;8.90;5.55;;;2.60;99.90;;;;;;4958201;29;20028;-84
2023/01/19 17:36:09;;;;;;;11.65;6.55;;;2.60;99.90;;;;;;4942078;29;20047;-84
2023/01/19 17:38:36;;;;;;;80.45;44.95;;;2.60;99.90;;;;;;4956765;29;20079;-83
2023/01/19 17:41:10;;;;;;;38.85;23.13;;;2.50;99.90;;;;;;4958372;29;20016;-83
2023/01/19 17:43:36;;;;;;;24.95;13.80;;;2.20;99.90;;;;;;4958391;29;20019;-83
2023/01/19 17:46:02;;;;;;;;;;;2.30;99.90;;;;;;4959006;29;20080;-84
2023/01/19 17:48:28;;;;;;;46.97;32.58;;;2.40;99.90;;;;;;4942577;29;19903;-83
2023/01/19 17:51:02;;;;;;;68.60;44.33;;;2.40;99.90;;;;;;4959356;29;20477;-83
2023/01/19 17:53:28;;;;;;;34.33;19.25;;;2.30;99.90;;;;;;4941155;29;20032;-83
2023/01/19 17:55:54;;;;;;;14.20;8.07;;;2.30;99.90;;;;;;4957566;29;20004;-83
2023/01/19 17:58:22;;;;;;;8.88;5.43;;;2.20;99.90;;;;;;4940687;29;20175;-83
2023/01/19 18:00:48;;;;;;;7.97;5.00;;;1.70;99.90;;;;;;4941565;29;20027;-83
2023/01/19 18:03:14;;;;;;;18.83;8.57;;;2.10;99.90;;;;;;4945466;29;20071;-83
2023/01/19 18:05:42;;;;;;;38.03;17.35;;;2.20;99.90;;;;;;4961481;29;20059;-83
2023/01/19 18:08:08;;;;;;;24.15;12.05;;;2.20;99.90;;;;;;4961704;29;20056;-83
2023/01/19 18:10:34;;;;;;;12.57;5.47;;;2.20;99.90;;;;;;4944060;29;20027;-83
2023/01/19 18:13:00;;;;;;;;;;;2.20;99.90;;;;;;4944793;29;20237;-84
2023/01/19 18:15:27;;;;;;;13.43;5.10;;;2.30;99.90;;;;;;4961143;29;19906;-83
2023/01/19 18:17:53;;;;;;;15.05;8.32;;;2.20;99.90;;;;;;4961440;29;20003;-83
2023/01/19 18:20:19;;;;;;;13.10;6.57;;;2.10;99.90;;;;;;4960865;29;20012;-83
2023/01/19 18:22:47;;;;;;;21.35;12.20;;;2.30;99.90;;;;;;4961442;29;20102;-83
2023/01/19 18:25:14;;;;;;;22.85;14.60;;;2.20;99.90;;;;;;4961021;29;20083;-83
2023/01/19 18:27:40;;;;;;;8.18;5.05;;;2.40;99.90;;;;;;4944120;29;20028;-83
2023/01/19 18:30:07;;;;;;;4.40;2.30;;;2.40;99.90;;;;;;4961105;29;20052;-83
2023/01/19 18:32:34;;;;;;;2.53;1.55;;;2.30;99.90;;;;;;4943401;29;20035;-83
2023/01/19 18:35:01;;;;;;;3.85;1.58;;;2.30;99.90;;;;;;4961460;29;20023;-82
2023/01/19 18:37:27;;;;;;;4.53;2.85;;;2.50;99.90;;;;;;4961044;29;20031;-84
2023/01/19 18:39:58;;;;;;;7.55;4.90;;;2.40;99.90;;;;;;4960788;29;20027;-84
2023/01/19 18:42:24;;;;;;;11.00;5.88;;;2.30;99.90;;;;;;4944349;29;20067;-83
2023/01/19 18:44:51;;;;;;;8.00;4.82;;;2.40;99.90;;;;;;4960673;29;20024;-83
2023/01/19 18:47:18;;;;;;;8.80;5.60;;;2.50;99.90;;;;;;4944150;29;20015;-84
2023/01/19 18:49:45;;;;;;;8.98;6.15;;;2.80;99.90;;;;;;4959182;29;20031;-83
2023/01/19 18:52:11;;;;;;;9.55;6.07;;;2.60;99.90;;;;;;4960752;29;20027;-83
2023/01/19 18:54:38;;;;;;;12.15;7.15;;;2.80;99.90;;;;;;4960514;29;20024;-83
2023/01/19 18:57:05;;;;;;;10.85;6.75;;;2.90;99.90;;;;;;4943818;29;20028;-83
2023/01/19 18:59:32;;;;;;;11.27;6.70;;;2.80;99.90;;;;;;4960636;29;20036;-83
2023/01/19 19:02:00;;;;;;;11.73;7.25;;;3.10;99.90;;;;;;4944592;28;20040;-81
2023/01/19 19:04:26;;;;;;;10.80;6.57;;;3.00;99.90;;;;;;4961422;29;20051;-83
2023/01/19 19:06:53;;;;;;;10.38;6.95;;;2.90;99.90;;;;;;4944179;29;20035;-83
2023/01/19 19:09:19;;;;;;;10.93;7.60;;;3.00;99.90;;;;;;4944975;29;20099;-82
2023/01/19 19:11:46;;;;;;;10.25;6.93;;;2.90;99.90;;;;;;4944778;29;20060;-83
2023/01/19 19:14:12;;;;;;;11.18;7.97;;;3.00;99.90;;;;;;4959981;29;20030;-83
2023/01/19 19:16:39;;;;;;;10.32;7.03;;;3.00;99.90;;;;;;4961246;28;20014;-84
2023/01/19 19:19:07;;;;;;;10.45;6.95;;;3.00;99.90;;;;;;4943768;29;20099;-83
2023/01/19 19:21:33;;;;;;;9.38;6.45;;;3.00;99.90;;;;;;4944352;29;20019;-83
2023/01/19 19:23:59;;;;;;;10.30;6.95;;;3.00;99.90;;;;;;4943666;29;20038;-83
2023/01/19 19:26:27;;;;;;;10.60;7.40;;;2.90;99.90;;;;;;4960835;29;20016;-83
2023/01/19 19:28:53;;;;;;;13.27;8.15;;;2.90;99.90;;;;;;4960444;29;20008;-83
2023/01/19 19:31:21;;;;;;;15.95;9.50;;;2.90;99.90;;;;;;4959802;29;20007;-83
2023/01/19 19:33:49;;;;;;;12.05;8.40;;;2.90;99.90;;;;;;4960100;29;20020;-83
2023/01/19 19:36:16;;;;;;;16.05;11.02;;;2.90;99.90;;;;;;4943519;29;20039;-83